createdAt,value
2018-08-13T00:00:38.033Z,66.08
2018-08-13T00:02:30.850Z,65.66
2018-08-13T00:03:30.770Z,66.05
2018-08-13T00:05:23.561Z,65.37
2018-08-13T00:06:23.514Z,66.43
2018-08-13T00:08:16.333Z,66.72
2018-08-13T00:09:16.252Z,66.43
2018-08-13T00:11:09.048Z,66.27
2018-08-13T00:12:08.996Z,66.63
2018-08-13T00:14:01.816Z,66.14
2018-08-13T00:15:01.745Z,65.95
2018-08-13T00:16:54.526Z,65.66
2018-08-13T00:17:54.478Z,65.47
2018-08-13T00:19:47.299Z,65.56
2018-08-13T00:20:47.218Z,65.47
2018-08-13T00:22:40.013Z,65.47
2018-08-13T00:23:39.963Z,65.47
2018-08-13T00:25:32.783Z,65.75
2018-08-13T00:26:32.703Z,65.56
2018-08-13T00:28:25.497Z,65.47
2018-08-13T00:29:25.446Z,65.47
2018-08-13T00:31:18.267Z,65.95
2018-08-13T00:32:18.191Z,65.66
2018-08-13T00:34:10.979Z,65.56
2018-08-13T00:35:10.929Z,65.66
2018-08-13T00:37:03.747Z,65.66
2018-08-13T00:38:03.671Z,65.75
2018-08-13T00:39:56.459Z,65.47
2018-08-13T00:40:56.410Z,65.47
2018-08-13T00:42:49.233Z,65.37
2018-08-13T00:43:49.150Z,65.27
2018-08-13T00:45:41.937Z,65.56
2018-08-13T00:46:41.887Z,65.66
2018-08-13T00:48:34.707Z,65.66
2018-08-13T00:49:34.630Z,66.05
2018-08-13T00:51:27.421Z,66.05
2018-08-13T00:52:27.371Z,66.33
2018-08-13T00:54:20.201Z,65.66
2018-08-13T00:55:20.121Z,65.37
2018-08-13T00:57:12.912Z,65.17
2018-08-13T00:58:12.862Z,65.27
2018-08-13T01:00:05.684Z,65.27
2018-08-13T01:01:05.605Z,65.47
2018-08-13T01:02:58.395Z,65.47
2018-08-13T01:03:58.347Z,65.17
2018-08-13T01:05:51.784Z,65.37
2018-08-13T01:06:51.085Z,65.37
2018-08-13T01:08:43.874Z,65.37
2018-08-13T01:09:43.825Z,65.17
2018-08-13T01:11:36.645Z,65.27
2018-08-13T01:12:36.568Z,64.89
2018-08-13T01:14:29.356Z,64.79
2018-08-13T01:15:29.307Z,64.69
2018-08-13T01:17:22.130Z,64.79
2018-08-13T01:18:22.048Z,64.79
2018-08-13T01:20:14.837Z,64.89
2018-08-13T01:21:14.788Z,65.47
2018-08-13T01:23:07.613Z,65.17
2018-08-13T01:24:07.528Z,64.79
2018-08-13T01:26:00.318Z,65.27
2018-08-13T01:27:00.267Z,65.66
2018-08-13T01:28:53.087Z,65.56
2018-08-13T01:29:53.009Z,64.69
2018-08-13T01:31:45.798Z,65.27
2018-08-13T01:32:45.748Z,65.27
2018-08-13T01:34:38.569Z,65.27
2018-08-13T01:35:38.493Z,64.79
2018-08-13T01:37:31.280Z,65.56
2018-08-13T01:38:31.229Z,64.89
2018-08-13T01:40:24.050Z,65.47
2018-08-13T01:41:23.975Z,65.66
2018-08-13T01:43:16.763Z,64.79
2018-08-13T01:44:16.714Z,64.89
2018-08-13T01:46:09.534Z,63.92
2018-08-13T01:47:09.457Z,64.40
2018-08-13T01:49:02.247Z,64.11
2018-08-13T01:50:02.196Z,65.08
2018-08-13T01:51:55.018Z,64.21
2018-08-13T01:52:54.938Z,64.11
2018-08-13T01:54:47.728Z,64.01
2018-08-13T01:55:47.678Z,64.01
2018-08-13T01:57:40.498Z,64.11
2018-08-13T01:58:40.416Z,64.40
2018-08-13T02:00:33.324Z,64.11
2018-08-13T02:01:33.232Z,64.59
2018-08-13T02:03:25.972Z,64.79
2018-08-13T02:04:25.894Z,64.69
2018-08-13T02:06:18.683Z,64.79
2018-08-13T02:07:18.637Z,64.69
2018-08-13T02:09:11.457Z,64.59
2018-08-13T02:10:11.377Z,64.79
2018-08-13T02:12:04.168Z,64.79
2018-08-13T02:13:04.118Z,64.89
2018-08-13T02:14:56.937Z,64.89
2018-08-13T02:15:56.859Z,64.79
2018-08-13T02:17:49.651Z,64.79
2018-08-13T02:18:49.603Z,65.08
2018-08-13T02:20:42.423Z,64.50
2018-08-13T02:21:42.345Z,64.21
2018-08-13T02:23:35.137Z,64.89
2018-08-13T02:24:35.089Z,64.79
2018-08-13T02:26:27.926Z,64.98
2018-08-13T02:27:27.826Z,64.89
2018-08-13T02:29:20.617Z,64.11
2018-08-13T02:30:20.568Z,64.50
2018-08-13T02:32:13.881Z,63.92
2018-08-13T02:33:13.803Z,63.92
2018-08-13T02:35:06.592Z,64.21
2018-08-13T02:36:06.542Z,64.31
2018-08-13T02:37:59.361Z,64.40
2018-08-13T02:38:59.321Z,63.92
2018-08-13T02:40:52.070Z,64.31
2018-08-13T02:41:52.022Z,64.40
2018-08-13T02:43:44.840Z,64.21
2018-08-13T02:44:44.760Z,64.40
2018-08-13T02:46:37.550Z,64.01
2018-08-13T02:47:37.501Z,64.11
2018-08-13T02:49:30.320Z,64.11
2018-08-13T02:50:30.238Z,64.21
2018-08-13T02:52:23.030Z,64.21
2018-08-13T02:53:22.980Z,64.40
2018-08-13T02:55:15.799Z,64.89
2018-08-13T02:56:15.719Z,64.79
2018-08-13T02:58:08.585Z,64.69
2018-08-13T02:59:08.460Z,64.89
2018-08-13T03:01:01.283Z,64.69
2018-08-13T03:02:01.206Z,64.98
2018-08-13T03:03:53.990Z,64.98
2018-08-13T03:04:53.941Z,64.31
2018-08-13T03:06:46.760Z,64.11
2018-08-13T03:07:46.683Z,64.01
2018-08-13T03:09:39.472Z,64.01
2018-08-13T03:10:39.425Z,64.01
2018-08-13T03:12:32.248Z,63.92
2018-08-13T03:13:32.167Z,64.11
2018-08-13T03:15:24.958Z,64.31
2018-08-13T03:16:24.917Z,64.40
2018-08-13T03:18:17.728Z,64.40
2018-08-13T03:19:17.649Z,64.59
2018-08-13T03:21:10.443Z,64.21
2018-08-13T03:22:10.390Z,64.21
2018-08-13T03:24:03.223Z,64.40
2018-08-13T03:25:03.129Z,64.40
2018-08-13T03:26:55.916Z,64.59
2018-08-13T03:27:55.871Z,64.98
2018-08-13T03:29:48.686Z,64.69
2018-08-13T03:30:48.611Z,64.98
2018-08-13T03:32:41.399Z,64.79
2018-08-13T03:33:41.349Z,65.08
2018-08-13T03:35:34.175Z,64.59
2018-08-13T03:36:34.089Z,64.79
2018-08-13T03:38:26.878Z,64.89
2018-08-13T03:39:26.829Z,64.69
2018-08-13T03:41:19.649Z,65.08
2018-08-13T03:42:19.572Z,64.21
2018-08-13T03:44:12.363Z,64.11
2018-08-13T03:45:12.313Z,63.92
2018-08-13T03:47:05.131Z,64.21
2018-08-13T03:48:05.053Z,64.01
2018-08-13T03:49:57.842Z,63.82
2018-08-13T03:50:57.792Z,64.01
2018-08-13T03:52:50.632Z,63.92
2018-08-13T03:53:50.631Z,64.21
2018-08-13T03:55:43.322Z,64.21
2018-08-13T03:56:43.272Z,63.82
2018-08-13T03:58:36.094Z,64.31
2018-08-13T03:59:36.014Z,64.21
2018-08-13T04:01:28.806Z,64.01
2018-08-13T04:02:28.758Z,64.01
2018-08-13T04:04:21.582Z,63.92
2018-08-13T04:05:21.506Z,64.01
2018-08-13T04:07:14.285Z,63.73
2018-08-13T04:08:14.235Z,64.31
2018-08-13T04:10:07.055Z,64.01
2018-08-13T04:11:06.979Z,63.98
2018-08-13T04:12:59.812Z,64.08
2018-08-13T04:13:59.721Z,64.40
2018-08-13T04:15:52.544Z,63.89
2018-08-13T04:16:52.464Z,64.11
2018-08-13T04:18:45.261Z,64.31
2018-08-13T04:19:45.207Z,64.50
2018-08-13T04:21:38.044Z,64.98
2018-08-13T04:22:37.946Z,64.76
2018-08-13T04:24:30.735Z,64.21
2018-08-13T04:25:30.692Z,64.11
2018-08-13T04:27:23.508Z,64.11
2018-08-13T04:28:23.426Z,64.11
2018-08-13T04:30:16.215Z,64.01
2018-08-13T04:31:16.167Z,64.28
2018-08-13T04:33:08.984Z,64.11
2018-08-13T04:34:08.906Z,64.40
2018-08-13T04:36:01.696Z,64.40
2018-08-13T04:37:01.647Z,64.31
2018-08-13T04:38:54.484Z,64.98
2018-08-13T04:39:54.392Z,64.76
2018-08-13T04:41:47.179Z,64.69
2018-08-13T04:42:47.130Z,64.98
2018-08-13T04:44:39.951Z,64.89
2018-08-13T04:45:39.871Z,64.79
2018-08-13T04:47:32.661Z,64.69
2018-08-13T04:48:32.610Z,64.89
2018-08-13T04:50:25.433Z,64.69
2018-08-13T04:51:25.349Z,64.69
2018-08-13T04:53:18.143Z,64.59
2018-08-13T04:54:18.095Z,64.79
2018-08-13T04:56:10.910Z,64.79
2018-08-13T04:57:10.829Z,64.76
2018-08-13T04:59:03.639Z,64.79
2018-08-13T05:00:03.635Z,65.08
2018-08-13T05:01:56.389Z,64.98
2018-08-13T05:02:56.313Z,64.98
2018-08-13T05:04:49.102Z,64.79
2018-08-13T05:05:49.054Z,64.59
2018-08-13T05:07:41.873Z,64.89
2018-08-13T05:08:41.796Z,64.89
2018-08-13T05:10:34.587Z,65.24
2018-08-13T05:11:34.536Z,65.37
2018-08-13T05:13:27.356Z,65.27
2018-08-13T05:14:27.275Z,65.27
2018-08-13T05:16:20.065Z,65.27
2018-08-13T05:17:20.016Z,65.27
2018-08-13T05:19:12.835Z,65.17
2018-08-13T05:20:12.756Z,65.37
2018-08-13T05:22:05.544Z,65.17
2018-08-13T05:23:05.493Z,65.27
2018-08-13T05:24:58.314Z,65.66
2018-08-13T05:25:58.234Z,65.66
2018-08-13T05:27:51.023Z,65.66
2018-08-13T05:28:50.975Z,65.75
2018-08-13T05:30:43.795Z,65.47
2018-08-13T05:31:43.717Z,65.75
2018-08-13T05:33:36.510Z,66.05
2018-08-13T05:34:36.459Z,66.05
2018-08-13T05:36:29.278Z,65.85
2018-08-13T05:37:29.195Z,65.75
2018-08-13T05:39:21.985Z,65.66
2018-08-13T05:40:21.935Z,65.75
2018-08-13T05:42:14.762Z,66.14
2018-08-13T05:43:14.676Z,66.05
2018-08-13T05:45:07.466Z,66.14
2018-08-13T05:46:07.416Z,65.66
2018-08-13T05:48:00.237Z,66.63
2018-08-13T05:49:00.156Z,66.82
2018-08-13T05:50:52.948Z,66.33
2018-08-13T05:51:52.899Z,66.33
2018-08-13T05:53:45.720Z,66.53
2018-08-13T05:54:45.640Z,66.33
2018-08-13T05:56:38.431Z,65.95
2018-08-13T05:57:38.382Z,66.43
2018-08-13T05:59:31.200Z,66.14
2018-08-13T06:00:31.122Z,66.53
2018-08-13T06:02:23.912Z,66.43
2018-08-13T06:03:23.860Z,66.33
2018-08-13T06:05:16.684Z,66.63
2018-08-13T06:06:16.601Z,66.63
2018-08-13T06:08:09.391Z,67.01
2018-08-13T06:09:09.343Z,67.01
2018-08-13T06:11:02.186Z,66.72
2018-08-13T06:12:02.089Z,66.91
2018-08-13T06:13:54.880Z,67.01
2018-08-13T06:14:54.832Z,67.20
2018-08-13T06:16:47.650Z,67.30
2018-08-13T06:17:47.573Z,67.40
2018-08-13T06:19:40.363Z,67.78
2018-08-13T06:20:40.314Z,67.97
2018-08-13T06:22:33.151Z,68.26
2018-08-13T06:23:33.053Z,68.26
2018-08-13T06:25:25.844Z,67.97
2018-08-13T06:26:25.794Z,67.97
2018-08-13T06:28:18.670Z,68.36
2018-08-13T06:29:18.534Z,68.46
2018-08-13T06:31:11.329Z,68.36
2018-08-13T06:32:11.279Z,68.55
2018-08-13T06:34:04.100Z,68.46
2018-08-13T06:35:04.022Z,68.65
2018-08-13T06:36:56.811Z,68.75
2018-08-13T06:37:56.762Z,68.75
2018-08-13T06:39:49.597Z,68.75
2018-08-13T06:40:49.500Z,68.65
2018-08-13T06:42:42.289Z,68.36
2018-08-13T06:43:42.240Z,68.84
2018-08-13T06:45:35.060Z,68.75
2018-08-13T06:46:34.981Z,69.32
2018-08-13T06:48:27.771Z,69.23
2018-08-13T06:49:27.720Z,69.23
2018-08-13T06:51:20.541Z,69.23
2018-08-13T06:52:20.464Z,69.42
2018-08-13T06:54:13.250Z,69.62
2018-08-13T06:55:13.202Z,69.62
2018-08-13T06:57:06.038Z,69.62
2018-08-13T06:58:05.942Z,69.62
2018-08-13T06:59:58.731Z,69.71
2018-08-13T07:00:58.681Z,69.42
2018-08-13T07:02:51.503Z,69.81
2018-08-13T07:03:51.424Z,69.52
2018-08-13T07:05:44.215Z,69.52
2018-08-13T07:06:44.166Z,69.52
2018-08-13T07:08:37.006Z,69.52
2018-08-13T07:09:36.907Z,69.62
2018-08-13T07:11:29.700Z,69.62
2018-08-13T07:12:29.648Z,69.81
2018-08-13T07:14:22.486Z,69.81
2018-08-13T07:15:22.391Z,69.52
2018-08-13T07:17:15.180Z,69.52
2018-08-13T07:18:15.132Z,70.00
2018-08-13T07:20:07.950Z,69.90
2018-08-13T07:21:07.871Z,69.81
2018-08-13T07:23:00.663Z,69.81
2018-08-13T07:24:00.615Z,69.71
2018-08-13T07:25:53.453Z,69.71
2018-08-13T07:26:53.358Z,70.00
2018-08-13T07:28:46.147Z,69.90
2018-08-13T07:29:46.097Z,69.81
2018-08-13T07:31:38.919Z,69.81
2018-08-13T07:32:38.840Z,70.00
2018-08-13T07:34:31.627Z,70.00
2018-08-13T07:35:31.579Z,69.71
2018-08-13T07:37:24.399Z,69.81
2018-08-13T07:38:24.323Z,69.81
2018-08-13T07:40:17.110Z,70.00
2018-08-13T07:41:17.059Z,70.10
2018-08-13T07:43:09.894Z,70.20
2018-08-13T07:44:09.797Z,69.90
2018-08-13T07:46:02.584Z,70.00
2018-08-13T07:47:02.536Z,70.39
2018-08-13T07:48:55.373Z,70.29
2018-08-13T07:49:55.276Z,70.10
2018-08-13T07:51:48.103Z,70.20
2018-08-13T07:52:48.019Z,70.39
2018-08-13T07:54:40.854Z,70.20
2018-08-13T07:55:40.758Z,69.90
2018-08-13T07:57:33.546Z,70.29
2018-08-13T07:58:33.496Z,70.32
2018-08-13T08:00:26.316Z,70.10
2018-08-13T08:01:26.237Z,70.23
2018-08-13T08:03:19.025Z,70.20
2018-08-13T08:04:18.977Z,70.48
2018-08-13T08:06:11.813Z,70.14
2018-08-13T08:07:11.718Z,70.58
2018-08-13T08:09:04.511Z,70.39
2018-08-13T08:10:04.459Z,70.10
2018-08-13T08:11:58.804Z,70.58
2018-08-13T08:12:57.483Z,70.29
2018-08-13T08:14:50.197Z,70.23
2018-08-13T08:15:50.099Z,70.10
2018-08-13T08:18:45.095Z,70.58
2018-08-13T08:20:35.811Z,70.23
2018-08-13T08:21:35.734Z,70.39
2018-08-13T08:23:28.568Z,71.06
2018-08-13T08:24:28.473Z,71.10
2018-08-13T08:26:21.401Z,70.20
2018-08-13T08:27:21.213Z,71.10
2018-08-13T08:29:14.038Z,70.20
2018-08-13T08:30:13.957Z,70.23
2018-08-13T08:32:06.747Z,71.06
2018-08-13T08:33:06.696Z,70.48
2018-08-13T08:34:59.533Z,70.58
2018-08-13T08:35:59.435Z,70.87
2018-08-13T08:37:52.225Z,70.78
2018-08-13T08:38:52.178Z,70.48
2018-08-13T08:40:45.008Z,70.78
2018-08-13T08:41:44.924Z,70.90
2018-08-13T08:43:37.710Z,70.68
2018-08-13T08:44:37.661Z,70.78
2018-08-13T08:46:30.486Z,70.81
2018-08-13T08:47:30.400Z,70.68
2018-08-13T08:49:23.193Z,70.58
2018-08-13T08:50:23.146Z,70.62
2018-08-13T08:52:15.965Z,70.81
2018-08-13T08:53:15.888Z,70.48
2018-08-13T08:55:08.677Z,70.81
2018-08-13T08:56:08.627Z,70.62
2018-08-13T08:58:01.451Z,70.78
2018-08-13T08:59:01.369Z,70.97
2018-08-13T09:00:54.159Z,71.30
2018-08-13T09:01:54.123Z,70.97
2018-08-13T09:03:46.947Z,71.00
2018-08-13T09:04:46.854Z,71.00
2018-08-13T09:06:39.640Z,71.45
2018-08-13T09:07:39.591Z,71.26
2018-08-13T09:09:32.431Z,71.39
2018-08-13T09:10:32.333Z,71.26
2018-08-13T09:12:25.126Z,71.30
2018-08-13T09:13:25.078Z,71.26
2018-08-13T09:15:17.899Z,71.30
2018-08-13T09:16:17.821Z,71.16
2018-08-13T09:18:10.610Z,71.16
2018-08-13T09:19:10.673Z,71.20
2018-08-13T09:21:03.383Z,71.16
2018-08-13T09:22:03.303Z,71.30
2018-08-13T09:23:56.096Z,71.30
2018-08-13T09:24:56.047Z,71.16
2018-08-13T09:26:48.867Z,71.06
2018-08-13T09:27:48.790Z,71.16
2018-08-13T09:29:41.578Z,71.26
2018-08-13T09:30:41.529Z,71.20
2018-08-13T09:32:34.356Z,71.06
2018-08-13T09:33:34.272Z,71.26
2018-08-13T09:35:27.064Z,71.16
2018-08-13T09:36:27.012Z,71.48
2018-08-13T09:38:19.833Z,70.87
2018-08-13T09:39:19.753Z,70.87
2018-08-13T09:41:12.543Z,70.87
2018-08-13T09:42:12.492Z,70.97
2018-08-13T09:44:05.309Z,70.97
2018-08-13T09:45:05.231Z,70.90
2018-08-13T09:46:58.022Z,71.06
2018-08-13T09:47:57.976Z,71.20
2018-08-13T09:49:50.795Z,71.10
2018-08-13T09:50:50.715Z,71.26
2018-08-13T09:52:43.508Z,71.16
2018-08-13T09:53:43.490Z,71.16
2018-08-13T09:55:36.283Z,71.06
2018-08-13T09:56:36.201Z,71.20
2018-08-13T09:58:28.989Z,71.26
2018-08-13T09:59:28.941Z,71.16
2018-08-13T10:01:21.818Z,71.16
2018-08-13T10:02:21.682Z,71.06
2018-08-13T10:04:14.471Z,71.10
2018-08-13T10:05:14.422Z,71.16
2018-08-13T10:07:07.258Z,71.20
2018-08-13T10:08:07.164Z,71.39
2018-08-13T10:09:59.954Z,71.20
2018-08-13T10:10:59.949Z,71.39
2018-08-13T10:12:52.750Z,71.20
2018-08-13T10:13:52.649Z,71.39
2018-08-13T10:15:45.443Z,71.39
2018-08-13T10:16:45.440Z,71.39
2018-08-13T10:18:38.215Z,71.10
2018-08-13T10:19:38.130Z,71.48
2018-08-13T10:21:30.921Z,71.30
2018-08-13T10:22:30.870Z,71.20
2018-08-13T10:24:23.706Z,71.20
2018-08-13T10:25:23.612Z,71.20
2018-08-13T10:27:16.400Z,71.48
2018-08-13T10:28:16.352Z,71.30
2018-08-13T10:30:09.188Z,71.68
2018-08-13T10:31:09.093Z,71.30
2018-08-13T10:33:01.881Z,71.97
2018-08-13T10:34:01.836Z,71.55
2018-08-13T10:35:54.654Z,71.68
2018-08-13T10:36:54.574Z,71.78
2018-08-13T10:38:47.364Z,72.06
2018-08-13T10:39:47.316Z,71.74
2018-08-13T10:41:40.155Z,72.03
2018-08-13T10:42:40.061Z,72.06
2018-08-13T10:44:32.849Z,72.16
2018-08-13T10:45:32.799Z,72.16
2018-08-13T10:47:25.638Z,71.94
2018-08-13T10:48:25.545Z,71.94
2018-08-13T10:50:18.333Z,72.03
2018-08-13T10:51:18.286Z,72.06
2018-08-13T10:53:11.122Z,71.78
2018-08-13T10:54:11.025Z,71.78
2018-08-13T10:56:03.824Z,72.06
2018-08-13T10:57:03.771Z,71.97
2018-08-13T10:58:56.600Z,71.78
2018-08-13T10:59:56.507Z,71.58
2018-08-13T11:01:49.298Z,71.97
2018-08-13T11:02:49.294Z,71.78
2018-08-13T11:04:42.077Z,71.78
2018-08-13T11:05:41.993Z,71.88
2018-08-13T11:07:34.782Z,71.88
2018-08-13T11:08:34.736Z,71.88
2018-08-13T11:10:27.608Z,71.68
2018-08-13T11:11:27.478Z,71.88
2018-08-13T11:13:20.297Z,71.97
2018-08-13T11:14:20.219Z,71.68
2018-08-13T11:16:13.041Z,71.97
2018-08-13T11:17:12.962Z,71.68
2018-08-13T11:19:05.751Z,71.88
2018-08-13T11:20:05.703Z,71.68
2018-08-13T11:21:58.547Z,72.26
2018-08-13T11:22:58.445Z,71.78
2018-08-13T11:24:51.234Z,71.97
2018-08-13T11:25:51.191Z,71.97
2018-08-13T11:27:44.021Z,71.88
2018-08-13T11:28:43.989Z,71.97
2018-08-13T11:30:36.717Z,72.45
2018-08-13T11:31:36.673Z,72.16
2018-08-13T11:33:29.508Z,72.06
2018-08-13T11:34:29.412Z,71.97
2018-08-13T11:36:22.201Z,72.52
2018-08-13T11:37:22.151Z,72.45
2018-08-13T11:39:14.990Z,72.55
2018-08-13T11:40:14.895Z,72.52
2018-08-13T11:42:07.681Z,72.06
2018-08-13T11:43:07.631Z,72.45
2018-08-13T11:45:00.467Z,72.55
2018-08-13T11:46:00.371Z,72.42
2018-08-13T11:47:53.161Z,72.45
2018-08-13T11:48:53.111Z,72.45
2018-08-13T11:50:45.930Z,72.45
2018-08-13T11:51:45.850Z,72.06
2018-08-13T11:53:38.642Z,72.26
2018-08-13T11:54:38.592Z,72.06
2018-08-13T11:56:31.458Z,72.26
2018-08-13T11:57:31.336Z,72.16
2018-08-13T11:59:24.119Z,72.45
2018-08-13T12:00:24.073Z,72.26
2018-08-13T12:02:16.889Z,72.32
2018-08-13T12:03:16.810Z,72.26
2018-08-13T12:05:09.598Z,72.26
2018-08-13T12:06:09.550Z,72.16
2018-08-13T12:08:02.366Z,72.45
2018-08-13T12:09:02.288Z,72.36
2018-08-13T12:10:55.080Z,72.16
2018-08-13T12:11:55.032Z,72.36
2018-08-13T12:13:47.850Z,72.45
2018-08-13T12:14:47.773Z,72.16
2018-08-13T12:16:40.561Z,72.36
2018-08-13T12:17:40.510Z,72.36
2018-08-13T12:19:33.339Z,72.16
2018-08-13T12:20:33.251Z,72.45
2018-08-13T12:22:26.045Z,72.36
2018-08-13T12:23:25.991Z,72.26
2018-08-13T12:25:18.827Z,72.26
2018-08-13T12:26:18.737Z,72.16
2018-08-13T12:28:11.520Z,72.36
2018-08-13T12:29:11.472Z,72.06
2018-08-13T12:31:04.306Z,72.26
2018-08-13T12:32:04.213Z,72.06
2018-08-13T12:33:57.022Z,72.06
2018-08-13T12:34:56.974Z,72.06
2018-08-13T12:36:49.810Z,72.45
2018-08-13T12:37:49.713Z,72.16
2018-08-13T12:39:42.503Z,72.16
2018-08-13T12:40:42.454Z,72.06
2018-08-13T12:42:35.291Z,72.16
2018-08-13T12:43:35.199Z,72.06
2018-08-13T12:45:27.988Z,71.97
2018-08-13T12:46:27.938Z,71.97
2018-08-13T12:48:20.758Z,72.16
2018-08-13T12:49:20.681Z,71.97
2018-08-13T12:51:13.473Z,72.06
2018-08-13T12:52:13.424Z,71.88
2018-08-13T12:54:06.245Z,72.26
2018-08-13T12:55:06.166Z,72.06
2018-08-13T12:56:58.956Z,72.26
2018-08-13T12:57:58.908Z,72.26
2018-08-13T12:59:51.727Z,72.16
2018-08-13T13:00:51.649Z,72.55
2018-08-13T13:02:44.446Z,72.45
2018-08-13T13:03:44.400Z,72.55
2018-08-13T13:05:37.212Z,72.45
2018-08-13T13:06:37.134Z,72.36
2018-08-13T13:08:29.923Z,72.55
2018-08-13T13:09:29.874Z,72.55
2018-08-13T13:11:22.692Z,72.16
2018-08-13T13:12:22.612Z,72.52
2018-08-13T13:14:15.403Z,72.16
2018-08-13T13:15:15.352Z,72.55
2018-08-13T13:17:08.173Z,72.55
2018-08-13T13:18:08.095Z,72.64
2018-08-13T13:20:00.886Z,72.64
2018-08-13T13:21:00.838Z,72.61
2018-08-13T13:22:53.656Z,72.55
2018-08-13T13:23:53.578Z,72.26
2018-08-13T13:25:46.367Z,72.55
2018-08-13T13:26:46.318Z,72.55
2018-08-13T13:28:39.180Z,72.55
2018-08-13T13:29:39.084Z,72.64
2018-08-13T13:31:31.874Z,72.64
2018-08-13T13:32:31.825Z,72.55
2018-08-13T13:34:24.662Z,72.55
2018-08-13T13:35:24.568Z,72.74
2018-08-13T13:37:17.354Z,72.64
2018-08-13T13:38:17.305Z,72.55
2018-08-13T13:40:10.125Z,72.74
2018-08-13T13:41:10.052Z,72.74
2018-08-13T13:43:02.837Z,72.94
2018-08-13T13:44:02.789Z,73.03
2018-08-13T13:45:55.609Z,72.64
2018-08-13T13:46:55.533Z,72.55
2018-08-13T13:48:48.324Z,72.94
2018-08-13T13:49:48.285Z,72.94
2018-08-13T13:51:41.120Z,72.94
2018-08-13T13:52:41.021Z,72.74
2018-08-13T13:54:33.808Z,72.74
2018-08-13T13:55:33.759Z,72.74
2018-08-13T13:57:26.685Z,72.74
2018-08-13T13:58:26.499Z,72.94
2018-08-13T14:00:19.594Z,72.74
2018-08-13T14:01:19.545Z,72.55
2018-08-13T14:03:12.380Z,72.94
2018-08-13T14:04:12.286Z,72.84
2018-08-13T14:06:05.076Z,72.94
2018-08-13T14:07:05.026Z,73.22
2018-08-13T14:08:57.863Z,72.55
2018-08-13T14:09:57.770Z,72.64
2018-08-13T14:11:50.559Z,72.55
2018-08-13T14:12:50.512Z,72.55
2018-08-13T14:14:43.355Z,72.45
2018-08-13T14:15:43.329Z,72.55
2018-08-13T14:17:36.087Z,72.26
2018-08-13T14:18:35.997Z,72.55
2018-08-13T14:20:28.826Z,73.03
2018-08-13T14:21:28.763Z,72.36
2018-08-13T14:23:21.531Z,72.36
2018-08-13T14:24:21.481Z,73.22
2018-08-13T14:26:14.317Z,72.94
2018-08-13T14:27:14.222Z,73.42
2018-08-13T14:29:07.013Z,73.32
2018-08-13T14:30:06.965Z,72.94
2018-08-13T14:31:59.802Z,73.32
2018-08-13T14:32:59.704Z,73.42
2018-08-13T14:34:52.577Z,73.52
2018-08-13T14:35:52.450Z,73.61
2018-08-13T14:37:45.285Z,73.52
2018-08-13T14:38:45.188Z,73.22
2018-08-13T14:40:37.980Z,73.52
2018-08-13T14:41:37.932Z,73.32
2018-08-13T14:43:30.767Z,73.03
2018-08-13T14:44:30.670Z,73.42
2018-08-13T14:46:23.459Z,72.94
2018-08-13T14:47:23.412Z,73.03
2018-08-13T14:49:16.231Z,73.22
2018-08-13T14:50:16.153Z,73.42
2018-08-13T14:52:08.945Z,72.94
2018-08-13T14:53:08.897Z,72.94
2018-08-13T14:55:01.738Z,72.84
2018-08-13T14:56:01.641Z,73.03
2018-08-13T14:57:54.429Z,73.03
2018-08-13T14:58:54.387Z,72.94
2018-08-13T15:00:47.201Z,72.94
2018-08-13T15:01:47.128Z,72.94
2018-08-13T15:03:39.913Z,72.94
2018-08-13T15:04:39.862Z,73.13
2018-08-13T15:06:32.693Z,73.13
2018-08-13T15:07:32.604Z,73.13
2018-08-13T15:09:25.392Z,73.13
2018-08-13T15:10:25.344Z,73.22
2018-08-13T15:12:18.165Z,73.32
2018-08-13T15:13:18.136Z,73.32
2018-08-13T15:15:10.880Z,73.03
2018-08-13T15:16:10.827Z,73.13
2018-08-13T15:18:03.664Z,73.42
2018-08-13T15:19:03.630Z,73.52
2018-08-13T15:20:56.358Z,73.61
2018-08-13T15:21:56.311Z,73.61
2018-08-13T15:23:49.128Z,73.42
2018-08-13T15:24:49.050Z,73.22
2018-08-13T15:26:41.845Z,73.42
2018-08-13T15:27:41.960Z,73.42
2018-08-13T15:29:34.638Z,73.42
2018-08-13T15:30:34.535Z,73.22
2018-08-13T15:32:27.327Z,73.32
2018-08-13T15:33:27.308Z,73.03
2018-08-13T15:35:20.098Z,73.42
2018-08-13T15:36:20.022Z,73.13
2018-08-13T15:38:12.810Z,73.13
2018-08-13T15:39:12.760Z,73.22
2018-08-13T15:41:05.589Z,73.32
2018-08-13T15:42:05.557Z,73.22
2018-08-13T15:43:58.296Z,73.42
2018-08-13T15:44:58.246Z,73.71
2018-08-13T15:46:51.065Z,73.22
2018-08-13T15:47:51.066Z,73.42
2018-08-13T15:49:43.778Z,73.52
2018-08-13T15:50:43.727Z,73.32
2018-08-13T15:52:36.550Z,73.71
2018-08-13T15:53:36.474Z,73.61
2018-08-13T15:55:29.311Z,73.42
2018-08-13T15:56:29.214Z,73.52
2018-08-13T15:58:22.103Z,73.52
2018-08-13T15:59:21.960Z,73.61
2018-08-13T16:01:14.749Z,73.90
2018-08-13T16:02:14.700Z,73.80
2018-08-13T16:04:07.521Z,73.90
2018-08-13T16:05:07.439Z,73.90
2018-08-13T16:07:00.231Z,73.61
2018-08-13T16:08:00.261Z,73.61
2018-08-13T16:09:53.019Z,73.80
2018-08-13T16:10:52.922Z,73.90
2018-08-13T16:12:45.716Z,73.80
2018-08-13T16:13:45.667Z,73.61
2018-08-13T16:15:38.491Z,73.90
2018-08-13T16:16:38.407Z,73.90
2018-08-13T16:18:31.197Z,73.52
2018-08-13T16:19:31.153Z,73.42
2018-08-13T16:21:23.970Z,74.10
2018-08-13T16:22:23.893Z,73.61
2018-08-13T16:24:16.682Z,74.19
2018-08-13T16:25:16.634Z,73.32
2018-08-13T16:27:09.455Z,73.61
2018-08-13T16:28:09.377Z,74.10
2018-08-13T16:30:02.169Z,73.52
2018-08-13T16:31:02.117Z,73.42
2018-08-13T16:32:54.939Z,74.10
2018-08-13T16:33:54.865Z,74.10
2018-08-13T16:35:47.652Z,74.29
2018-08-13T16:36:47.601Z,74.10
2018-08-13T16:38:40.422Z,74.10
2018-08-13T16:39:40.347Z,73.90
2018-08-13T16:41:33.133Z,73.90
2018-08-13T16:42:33.089Z,74.10
2018-08-13T16:44:25.927Z,73.90
2018-08-13T16:45:25.829Z,73.52
2018-08-13T16:47:18.619Z,73.90
2018-08-13T16:48:18.572Z,74.10
2018-08-13T16:50:11.425Z,74.00
2018-08-13T16:51:11.315Z,74.00
2018-08-13T16:53:04.105Z,74.00
2018-08-13T16:54:04.059Z,74.00
2018-08-13T16:55:56.878Z,74.19
2018-08-13T16:56:56.799Z,74.00
2018-08-13T16:58:49.590Z,73.52
2018-08-13T16:59:49.541Z,73.71
2018-08-13T17:01:42.363Z,73.80
2018-08-13T17:02:42.285Z,73.90
2018-08-13T17:04:35.074Z,74.48
2018-08-13T17:05:35.026Z,74.00
2018-08-13T17:07:27.982Z,73.90
2018-08-13T17:08:27.767Z,73.90
2018-08-13T17:10:20.560Z,73.90
2018-08-13T17:11:20.511Z,74.00
2018-08-13T17:13:13.331Z,73.80
2018-08-13T17:14:13.379Z,73.80
2018-08-13T17:16:06.040Z,74.00
2018-08-13T17:17:05.990Z,73.52
2018-08-13T17:18:58.815Z,73.90
2018-08-13T17:19:58.734Z,74.38
2018-08-13T17:21:51.524Z,74.00
2018-08-13T17:22:51.474Z,73.71
2018-08-13T17:24:44.874Z,73.42
2018-08-13T17:25:44.218Z,73.61
2018-08-13T17:27:37.010Z,73.90
2018-08-13T17:28:36.961Z,73.42
2018-08-13T17:30:29.779Z,73.71
2018-08-13T17:31:29.699Z,73.42
2018-08-13T17:33:22.490Z,73.80
2018-08-13T17:34:22.440Z,73.80
2018-08-13T17:36:15.259Z,73.52
2018-08-13T17:37:15.181Z,73.80
2018-08-13T17:39:07.972Z,73.90
2018-08-13T17:40:07.923Z,73.80
2018-08-13T17:42:00.759Z,73.90
2018-08-13T17:43:00.854Z,73.52
2018-08-13T17:44:53.456Z,73.52
2018-08-13T17:45:53.462Z,73.52
2018-08-13T17:47:46.227Z,73.52
2018-08-13T17:48:46.148Z,73.71
2018-08-13T17:50:38.937Z,73.71
2018-08-13T17:51:39.543Z,73.61
2018-08-13T17:53:31.709Z,73.52
2018-08-13T17:54:31.630Z,73.52
2018-08-13T17:56:24.445Z,73.80
2018-08-13T17:57:24.371Z,73.71
2018-08-13T17:59:17.189Z,73.80
2018-08-13T18:00:17.109Z,74.38
2018-08-13T18:02:09.973Z,74.00
2018-08-13T18:03:09.849Z,74.00
2018-08-13T18:05:02.670Z,74.29
2018-08-13T18:06:02.591Z,74.19
2018-08-13T18:07:55.380Z,73.90
2018-08-13T18:08:55.335Z,73.90
2018-08-13T18:10:48.152Z,74.29
2018-08-13T18:11:48.072Z,74.87
2018-08-13T18:13:40.861Z,74.77
2018-08-13T18:14:40.810Z,74.87
2018-08-13T18:16:33.630Z,74.58
2018-08-13T18:17:33.550Z,74.68
2018-08-13T18:19:26.340Z,74.58
2018-08-13T18:20:26.289Z,74.87
2018-08-13T18:22:19.127Z,75.06
2018-08-13T18:23:19.030Z,75.45
2018-08-13T18:25:11.833Z,75.64
2018-08-13T18:26:11.785Z,75.16
2018-08-13T18:28:04.607Z,74.96
2018-08-13T18:29:04.528Z,75.16
2018-08-13T18:30:57.317Z,75.06
2018-08-13T18:31:57.271Z,75.84
2018-08-13T18:33:50.091Z,75.54